Terminal Aerodrome Forecast
Issued by NWS Shreveport, LA

Home | Current Version | Previous Version | Text Only | Print | Product List | Glossary On
Versions: 1 2 3 4 5 6 7 8 9 10 11 12 13 14 15 16 17 18 19
729
FTUS44 KSHV 281733
TAFGGG
TAF
KGGG 281733Z 2818/2918 02007KT P6SM SCT070
     FM282000 07007KT P6SM VCTS SCT040CB BKN070
     FM290100 VRB04KT P6SM VCSH SCT050 BKN070
     FM290400 VRB03KT P6SM FEW070 BKN150
     FM291700 07007KT P6SM SCT050=

USA.gov is the U.S. government's official web portal to all federal, state and local government web resources and services.